首页
METAR-TAF:

METAR-TAF

机场 :

斯特拉斯堡国际机场

斯特拉斯堡, 法国

纬度: 48-33N, 经度: 007-38E, 海拔: 153米

当前天气观测

该预报发布于13分钟前的18:30 UTC
风速4节,风向西南
温度 6°C
湿度 65%
气压 1030 hPa
能见度10公里或以上
1500米以下无云,无积雨云

METAR: LFST 211830Z AUTO 23004KT CAVOK 06/00 Q1030 NOSIG

时间: 19:43 (18:43 UTC)

预报

该预报发布于1小时和43分钟前的17:00 UTC
预报有效从21日的 18点(UTC)到 22日的 18点(UTC)
风速4节,风向西转西南
能见度10公里或以上
1500米以下无云,无积雨云
成为
从 22日的 08点(UTC)到 22日的 10点(UTC)
风速10节,风向,有时为20节阵风

TAF: LFST 211700Z 2118/2218 24004KT CAVOK BECMG 2208/2210 18010G20KT

超过4000个机场的气象观测和天气预报(METAR&TAF报告)。

可查询的气象台以黄色和红色小点在地图上表示。

将鼠标移到小点上方,可查看气象台名称。

然后点击查看天气观测和预报。

如需切换地图:点击带黑十字的绿色按钮放大地图;点击带横线的绿色按钮缩小地图;或者点击绿色箭头查看邻近地区的地图。


METAR-TAF: